createdAt,value
2023-05-05T00:01:37.267Z,1011.97
2023-05-05T00:03:22.606Z,1011.93
2023-05-05T00:05:07.273Z,1011.93
2023-05-05T00:06:52.745Z,1011.93
2023-05-05T00:08:37.254Z,1012.04
2023-05-05T00:10:22.267Z,1011.99
2023-05-05T00:12:07.300Z,1012.05
2023-05-05T00:13:52.267Z,1011.91
2023-05-05T00:15:37.280Z,1011.97
2023-05-05T00:17:22.320Z,1011.98
2023-05-05T00:19:07.290Z,1012
2023-05-05T00:20:52.326Z,1012
2023-05-05T00:22:37.376Z,1012.03
2023-05-05T00:24:22.317Z,1012.04
2023-05-05T00:26:07.280Z,1011.9
2023-05-05T00:27:52.349Z,1011.83
2023-05-05T00:29:37.311Z,1011.95
2023-05-05T00:31:22.325Z,1011.85
2023-05-05T00:33:07.674Z,1011.79
2023-05-05T00:34:52.326Z,1011.79
2023-05-05T00:36:37.317Z,1011.76
2023-05-05T00:38:22.425Z,1011.81
2023-05-05T00:40:07.462Z,1011.86
2023-05-05T00:41:52.644Z,1011.79
2023-05-05T00:43:37.365Z,1011.81
2023-05-05T00:45:22.328Z,1011.84
2023-05-05T00:47:07.644Z,1011.91
2023-05-05T00:48:52.424Z,1011.75
2023-05-05T00:50:37.329Z,1011.81
2023-05-05T00:52:22.332Z,1011.84
2023-05-05T00:54:07.409Z,1011.84
2023-05-05T00:55:52.338Z,1011.85
2023-05-05T00:57:37.341Z,1011.68
2023-05-05T00:59:22.397Z,1011.82
2023-05-05T01:01:07.373Z,1011.71
2023-05-05T01:02:52.526Z,1011.79
2023-05-05T01:04:37.391Z,1011.85
2023-05-05T01:06:22.369Z,1011.88
2023-05-05T01:08:07.675Z,1011.93
2023-05-05T01:09:58.060Z,1011.94
2023-05-05T01:11:37.361Z,1011.96
2023-05-05T01:13:22.349Z,1011.96
2023-05-05T01:15:07.384Z,1011.9
2023-05-05T01:16:52.364Z,1011.99
2023-05-05T01:18:37.395Z,1011.97
2023-05-05T01:20:22.396Z,1011.96
2023-05-05T01:22:07.415Z,1011.98
2023-05-05T01:23:52.400Z,1012.01
2023-05-05T01:25:37.471Z,1011.92
2023-05-05T01:27:22.405Z,1011.96
2023-05-05T01:29:07.418Z,1011.96
2023-05-05T01:30:52.408Z,1011.98
2023-05-05T01:32:37.416Z,1011.93
2023-05-05T01:34:22.419Z,1011.92
2023-05-05T01:36:07.508Z,1011.95
2023-05-05T01:37:52.419Z,1011.97
2023-05-05T01:39:37.384Z,1011.87
2023-05-05T01:41:22.455Z,1011.96
2023-05-05T01:43:07.418Z,1011.88
2023-05-05T01:44:52.420Z,1011.96
2023-05-05T01:46:37.477Z,1011.9
2023-05-05T01:48:22.393Z,1011.94
2023-05-05T01:50:07.492Z,1011.85
2023-05-05T01:51:52.486Z,1011.87
2023-05-05T01:53:37.412Z,1011.84
2023-05-05T01:55:22.430Z,1011.98
2023-05-05T01:57:07.533Z,1012.02
2023-05-05T01:58:52.421Z,1012.01
2023-05-05T02:00:37.403Z,1012.02
2023-05-05T02:02:22.851Z,1012.03
2023-05-05T02:04:07.440Z,1012.03
2023-05-05T02:05:52.425Z,1012.12
2023-05-05T02:07:37.510Z,1012.14
2023-05-05T02:09:22.456Z,1012.17
2023-05-05T02:11:07.758Z,1012.11
2023-05-05T02:12:52.542Z,1012.13
2023-05-05T02:14:37.456Z,1012.16
2023-05-05T02:16:22.467Z,1012.17
2023-05-05T02:18:07.526Z,1012.18
2023-05-05T02:19:52.494Z,1012.26
2023-05-05T02:21:37.465Z,1012.36
2023-05-05T02:23:22.531Z,1012.27
2023-05-05T02:25:07.451Z,1012.31
2023-05-05T02:26:52.489Z,1012.34
2023-05-05T02:28:37.810Z,1012.36
2023-05-05T02:30:22.802Z,1012.28
2023-05-05T02:32:07.493Z,1012.3
2023-05-05T02:33:52.516Z,1012.37
2023-05-05T02:35:37.495Z,1012.27
2023-05-05T02:37:22.492Z,1012.35
2023-05-05T02:39:07.515Z,1012.34
2023-05-05T02:40:52.796Z,1012.35
2023-05-05T02:42:37.473Z,1012.32
2023-05-05T02:44:22.901Z,1012.32
2023-05-05T02:46:07.521Z,1012.41
2023-05-05T02:47:52.561Z,1012.43
2023-05-05T02:49:37.536Z,1012.47
2023-05-05T02:51:22.518Z,1012.5
2023-05-05T02:53:07.506Z,1012.47
2023-05-05T02:54:52.571Z,1012.47
2023-05-05T02:56:37.512Z,1012.51
2023-05-05T02:58:22.522Z,1012.5
2023-05-05T03:00:07.708Z,1012.45
2023-05-05T03:01:52.555Z,1012.4
2023-05-05T03:03:37.584Z,1012.45
2023-05-05T03:05:22.564Z,1012.48
2023-05-05T03:07:07.520Z,1012.32
2023-05-05T03:08:52.537Z,1012.42
2023-05-05T03:10:37.575Z,1012.44
2023-05-05T03:12:22.541Z,1012.37
2023-05-05T03:14:07.536Z,1012.48
2023-05-05T03:15:52.703Z,1012.46
2023-05-05T03:17:37.592Z,1012.48
2023-05-05T03:19:22.539Z,1012.47
2023-05-05T03:21:07.635Z,1012.32
2023-05-05T03:22:52.543Z,1012.31
2023-05-05T03:24:37.523Z,1012.34
2023-05-05T03:26:22.638Z,1012.38
2023-05-05T03:28:07.569Z,1012.42
2023-05-05T03:29:52.551Z,1012.42
2023-05-05T03:31:37.766Z,1012.45
2023-05-05T03:33:22.568Z,1012.47
2023-05-05T03:35:07.564Z,1012.43
2023-05-05T03:36:52.623Z,1012.44
2023-05-05T03:38:37.585Z,1012.39
2023-05-05T03:40:29.889Z,1012.46
2023-05-05T03:42:07.678Z,1012.45
2023-05-05T03:43:52.891Z,1012.36
2023-05-05T03:45:37.756Z,1012.45
2023-05-05T03:47:22.931Z,1012.35
2023-05-05T03:49:07.586Z,1012.46
2023-05-05T03:50:52.572Z,1012.4
2023-05-05T03:52:37.678Z,1012.46
2023-05-05T03:54:22.590Z,1012.5
2023-05-05T03:56:07.576Z,1012.47
2023-05-05T03:57:52.652Z,1012.44
2023-05-05T03:59:37.590Z,1012.55
2023-05-05T04:01:22.583Z,1012.65
2023-05-05T04:03:07.884Z,1012.57
2023-05-05T04:04:52.615Z,1012.65
2023-05-05T04:06:37.620Z,1012.64
2023-05-05T04:08:22.702Z,1012.74
2023-05-05T04:10:07.818Z,1012.72
2023-05-05T04:11:52.605Z,1012.78
2023-05-05T04:13:37.987Z,1012.79
2023-05-05T04:15:22.642Z,1012.84
2023-05-05T04:17:07.651Z,1012.86
2023-05-05T04:18:52.704Z,1012.94
2023-05-05T04:20:37.931Z,1012.95
2023-05-05T04:22:22.626Z,1013.03
2023-05-05T04:24:07.728Z,1013.02
2023-05-05T04:25:52.648Z,1013.01
2023-05-05T04:27:37.688Z,1012.99
2023-05-05T04:29:22.686Z,1012.99
2023-05-05T04:31:07.685Z,1012.94
2023-05-05T04:32:52.651Z,1012.99
2023-05-05T04:34:37.704Z,1012.93
2023-05-05T04:36:22.686Z,1012.94
2023-05-05T04:38:07.654Z,1013.11
2023-05-05T04:39:52.704Z,1012.95
2023-05-05T04:41:37.682Z,1013.05
2023-05-05T04:43:22.647Z,1013.01
2023-05-05T04:45:07.707Z,1012.98
2023-05-05T04:46:52.741Z,1013.01
2023-05-05T04:48:37.680Z,1013.05
2023-05-05T04:50:22.747Z,1013.02
2023-05-05T04:52:07.676Z,1013.09
2023-05-05T04:53:52.689Z,1013.17
2023-05-05T04:55:37.775Z,1013.14
2023-05-05T04:57:22.709Z,1013.17
2023-05-05T04:59:07.724Z,1013.2
2023-05-05T05:00:52.728Z,1013.24
2023-05-05T05:02:37.852Z,1013.18
2023-05-05T05:04:22.695Z,1013.2
2023-05-05T05:06:07.850Z,1013.18
2023-05-05T05:07:53.004Z,1013.2
2023-05-05T05:09:37.771Z,1013.22
2023-05-05T05:11:22.770Z,1013.09
2023-05-05T05:13:07.728Z,1013.3
2023-05-05T05:14:52.724Z,1013.23
2023-05-05T05:16:37.820Z,1013.26
2023-05-05T05:18:22.700Z,1013.28
2023-05-05T05:20:07.899Z,1013.35
2023-05-05T05:21:52.844Z,1013.32
2023-05-05T05:23:37.726Z,1013.37
2023-05-05T05:25:23.021Z,1013.34
2023-05-05T05:27:09.747Z,1013.36
2023-05-05T05:28:52.744Z,1013.36
2023-05-05T05:30:37.734Z,1013.44
2023-05-05T05:32:22.759Z,1013.4
2023-05-05T05:34:07.740Z,1013.4
2023-05-05T05:35:52.753Z,1013.5
2023-05-05T05:37:37.789Z,1013.39
2023-05-05T05:39:22.743Z,1013.39
2023-05-05T05:41:07.762Z,1013.45
2023-05-05T05:42:52.769Z,1013.48
2023-05-05T05:44:37.748Z,1013.37
2023-05-05T05:46:22.788Z,1013.5
2023-05-05T05:48:07.827Z,1013.51
2023-05-05T05:49:52.782Z,1013.49
2023-05-05T05:51:37.795Z,1013.52
2023-05-05T05:53:22.824Z,1013.42
2023-05-05T05:55:07.779Z,1013.44
2023-05-05T05:56:52.840Z,1013.44
2023-05-05T05:58:37.817Z,1013.43
2023-05-05T06:00:22.781Z,1013.49
2023-05-05T06:02:07.806Z,1013.47
2023-05-05T06:03:52.957Z,1013.38
2023-05-05T06:05:37.789Z,1013.35
2023-05-05T06:07:22.784Z,1013.44
2023-05-05T06:09:07.862Z,1013.55
2023-05-05T06:10:52.788Z,1013.49
2023-05-05T06:12:37.825Z,1013.41
2023-05-05T06:14:22.825Z,1013.62
2023-05-05T06:16:07.840Z,1013.48
2023-05-05T06:17:52.811Z,1013.61
2023-05-05T06:19:37.864Z,1013.58
2023-05-05T06:21:22.782Z,1013.49
2023-05-05T06:23:07.819Z,1013.47
2023-05-05T06:24:52.867Z,1013.4
2023-05-05T06:26:37.812Z,1013.41
2023-05-05T06:28:22.815Z,1013.47
2023-05-05T06:30:08.132Z,1013.41
2023-05-05T06:31:52.965Z,1013.39
2023-05-05T06:33:37.819Z,1013.43
2023-05-05T06:35:23.169Z,1013.44
2023-05-05T06:37:07.843Z,1013.49
2023-05-05T06:38:52.840Z,1013.48
2023-05-05T06:40:37.954Z,1013.59
2023-05-05T06:42:22.823Z,1013.59
2023-05-05T06:44:07.855Z,1013.72
2023-05-05T06:45:52.904Z,1013.64
2023-05-05T06:47:37.910Z,1013.74
2023-05-05T06:49:22.845Z,1013.77
2023-05-05T06:51:07.879Z,1013.79
2023-05-05T06:52:52.850Z,1013.85
2023-05-05T06:54:37.848Z,1013.87
2023-05-05T06:56:23.070Z,1013.94
2023-05-05T06:58:07.868Z,1013.84
2023-05-05T06:59:52.867Z,1014.09
2023-05-05T07:01:37.897Z,1013.92
2023-05-05T07:03:22.939Z,1013.92
2023-05-05T07:05:07.879Z,1013.89
2023-05-05T07:06:52.944Z,1013.93
2023-05-05T07:08:37.920Z,1013.88
2023-05-05T07:10:22.898Z,1014.03
2023-05-05T07:12:08.096Z,1013.97
2023-05-05T07:13:53.216Z,1013.96
2023-05-05T07:15:37.930Z,1014.01
2023-05-05T07:17:22.991Z,1013.98
2023-05-05T07:19:07.901Z,1014.05
2023-05-05T07:20:52.924Z,1014.14
2023-05-05T07:22:37.937Z,1014.05
2023-05-05T07:24:22.926Z,1014.14
2023-05-05T07:26:07.909Z,1014.08
2023-05-05T07:27:53.157Z,1014.1
2023-05-05T07:29:37.947Z,1014.19
2023-05-05T07:31:22.907Z,1014.11
2023-05-05T07:33:07.999Z,1014.13
2023-05-05T07:34:52.937Z,1014.16
2023-05-05T07:36:37.930Z,1014.06
2023-05-05T07:38:22.991Z,1014.1
2023-05-05T07:40:08.233Z,1014.13
2023-05-05T07:41:52.917Z,1014.22
2023-05-05T07:43:39.371Z,1014.24
2023-05-05T07:45:22.949Z,1014.08
2023-05-05T07:47:07.924Z,1014.13
2023-05-05T07:48:52.990Z,1014.08
2023-05-05T07:50:37.970Z,1014.16
2023-05-05T07:52:30.246Z,1014.12
2023-05-05T07:54:07.976Z,1014.18
2023-05-05T07:55:52.985Z,1014.24
2023-05-05T07:57:37.970Z,1014.26
2023-05-05T07:59:23.157Z,1014.17
2023-05-05T08:01:07.992Z,1014.11
2023-05-05T08:02:53.006Z,1014.1
2023-05-05T08:04:38.018Z,1014.11
2023-05-05T08:06:22.992Z,1014.14
2023-05-05T08:08:07.961Z,1014.16
2023-05-05T08:09:53.045Z,1014.22
2023-05-05T08:11:37.987Z,1014.11
2023-05-05T08:13:22.971Z,1014.15
2023-05-05T08:15:08.453Z,1014.11
2023-05-05T08:16:53.299Z,1014.1
2023-05-05T08:18:37.986Z,1014.14
2023-05-05T08:20:23.078Z,1014.21
2023-05-05T08:22:08.011Z,1014.24
2023-05-05T08:23:52.988Z,1014.26
2023-05-05T08:25:38.032Z,1014.22
2023-05-05T08:27:23.017Z,1014.16
2023-05-05T08:29:08.044Z,1014.17
2023-05-05T08:30:53.158Z,1014.19
2023-05-05T08:32:38.021Z,1014.2
2023-05-05T08:34:23.016Z,1014.18
2023-05-05T08:36:08.058Z,1014.18
2023-05-05T08:37:53.035Z,1014.25
2023-05-05T08:39:38.043Z,1014.22
2023-05-05T08:41:23.036Z,1014.25
2023-05-05T08:43:08.027Z,1014.15
2023-05-05T08:44:53.052Z,1014.2
2023-05-05T08:46:38.203Z,1014.2
2023-05-05T08:48:23.046Z,1014.17
2023-05-05T08:50:08.057Z,1014.25
2023-05-05T08:51:53.084Z,1014.21
2023-05-05T08:53:38.065Z,1014.21
2023-05-05T08:55:23.056Z,1014.12
2023-05-05T08:57:08.122Z,1014.13
2023-05-05T08:58:53.059Z,1014.16
2023-05-05T09:00:38.075Z,1014.23
2023-05-05T09:02:23.272Z,1014.28
2023-05-05T09:04:08.093Z,1014.17
2023-05-05T09:05:53.055Z,1014.32
2023-05-05T09:07:38.096Z,1014.2
2023-05-05T09:09:23.076Z,1014.32
2023-05-05T09:11:08.088Z,1014.22
2023-05-05T09:12:53.136Z,1014.21
2023-05-05T09:14:38.065Z,1014.24
2023-05-05T09:16:23.421Z,1014.33
2023-05-05T09:18:08.253Z,1014.29
2023-05-05T09:19:53.084Z,1014.29
2023-05-05T09:21:38.070Z,1014.29
2023-05-05T09:23:23.113Z,1014.23
2023-05-05T09:25:08.164Z,1014.32
2023-05-05T09:26:53.095Z,1014.32
2023-05-05T09:28:38.144Z,1014.42
2023-05-05T09:30:23.094Z,1014.29
2023-05-05T09:32:08.112Z,1014.26
2023-05-05T09:33:53.157Z,1014.25
2023-05-05T09:35:38.080Z,1014.24
2023-05-05T09:37:23.101Z,1014.24
2023-05-05T09:39:08.172Z,1014.32
2023-05-05T09:40:53.114Z,1014.21
2023-05-05T09:42:38.081Z,1014.28
2023-05-05T09:44:23.143Z,1014.23
2023-05-05T09:46:08.187Z,1014.27
2023-05-05T09:47:56.697Z,1014.29
2023-05-05T09:49:38.222Z,1014.22
2023-05-05T09:51:23.107Z,1014.26
2023-05-05T09:53:08.116Z,1014.15
2023-05-05T09:54:53.157Z,1014.25
2023-05-05T09:56:38.122Z,1014.26
2023-05-05T09:58:23.147Z,1014.19
2023-05-05T10:00:08.333Z,1014.19
2023-05-05T10:01:53.189Z,1014.15
2023-05-05T10:03:38.119Z,1014.18
2023-05-05T10:05:23.422Z,1014.24
2023-05-05T10:07:08.130Z,1014.11
2023-05-05T10:08:53.133Z,1014.12
2023-05-05T10:10:38.163Z,1014.11
2023-05-05T10:12:23.147Z,1014.18
2023-05-05T10:14:08.146Z,1014.08
2023-05-05T10:15:53.259Z,1014.05
2023-05-05T10:17:38.816Z,1014.07
2023-05-05T10:19:23.142Z,1014.11
2023-05-05T10:21:08.359Z,1014.13
2023-05-05T10:22:53.159Z,1014.04
2023-05-05T10:24:38.166Z,1013.92
2023-05-05T10:26:23.197Z,1014
2023-05-05T10:28:08.461Z,1013.9
2023-05-05T10:29:53.174Z,1013.83
2023-05-05T10:31:38.299Z,1013.85
2023-05-05T10:35:08.154Z,1013.87
2023-05-05T10:36:53.219Z,1013.86
2023-05-05T10:38:38.182Z,1013.78
2023-05-05T10:40:23.175Z,1013.89
2023-05-05T10:42:08.238Z,1013.92
2023-05-05T10:43:53.214Z,1013.88
2023-05-05T10:45:38.247Z,1013.85
2023-05-05T10:47:23.251Z,1013.79
2023-05-05T10:49:08.234Z,1013.75
2023-05-05T10:50:53.213Z,1013.8
2023-05-05T10:52:38.406Z,1013.72
2023-05-05T10:54:23.550Z,1013.65
2023-05-05T10:56:08.222Z,1013.66
2023-05-05T10:57:53.308Z,1013.61
2023-05-05T10:59:38.625Z,1013.64
2023-05-05T11:01:23.593Z,1013.47
2023-05-05T11:03:08.300Z,1013.52
2023-05-05T11:04:53.223Z,1013.59
2023-05-05T11:06:38.237Z,1013.62
2023-05-05T11:08:23.419Z,1013.61
2023-05-05T11:10:08.486Z,1013.6
2023-05-05T11:11:53.217Z,1013.56
2023-05-05T11:13:38.293Z,1013.5
2023-05-05T11:15:23.250Z,1013.51
2023-05-05T11:17:08.246Z,1013.49
2023-05-05T11:18:53.279Z,1013.45
2023-05-05T11:20:38.217Z,1013.49
2023-05-05T11:22:23.257Z,1013.55
2023-05-05T11:24:08.794Z,1013.4
2023-05-05T11:25:53.294Z,1013.45
2023-05-05T11:27:38.273Z,1013.38
2023-05-05T11:29:23.316Z,1013.34
2023-05-05T11:31:08.342Z,1013.31
2023-05-05T11:32:53.328Z,1013.42
2023-05-05T11:34:38.632Z,1013.44
2023-05-05T11:36:23.283Z,1013.46
2023-05-05T11:38:08.264Z,1013.47
2023-05-05T11:39:53.437Z,1013.51
2023-05-05T11:41:38.271Z,1013.45
2023-05-05T11:43:23.265Z,1013.5
2023-05-05T11:45:08.319Z,1013.46
2023-05-05T11:46:53.289Z,1013.4
2023-05-05T11:48:38.283Z,1013.42
2023-05-05T11:50:23.466Z,1013.4
2023-05-05T11:52:08.317Z,1013.3
2023-05-05T11:53:53.300Z,1013.33
2023-05-05T11:55:38.476Z,1013.32
2023-05-05T11:57:23.327Z,1013.48
2023-05-05T11:59:08.323Z,1013.39
2023-05-05T12:00:53.365Z,1013.36
2023-05-05T12:02:38.692Z,1013.4
2023-05-05T12:04:23.332Z,1013.49
2023-05-05T12:06:08.330Z,1013.48
2023-05-05T12:07:53.345Z,1013.43
2023-05-05T12:09:38.327Z,1013.56
2023-05-05T12:11:23.475Z,1013.45
2023-05-05T12:13:08.408Z,1013.55
2023-05-05T12:14:53.309Z,1013.58
2023-05-05T12:16:38.388Z,1013.5
2023-05-05T12:18:23.329Z,1013.7
2023-05-05T12:20:08.455Z,1013.61
2023-05-05T12:21:53.343Z,1013.6
2023-05-05T12:23:38.334Z,1013.58
2023-05-05T12:25:23.995Z,1013.57
2023-05-05T12:27:08.490Z,1013.55
2023-05-05T12:28:53.364Z,1013.62
2023-05-05T12:30:38.363Z,1013.63
2023-05-05T12:32:23.426Z,1013.52
2023-05-05T12:34:08.651Z,1013.57
2023-05-05T12:35:53.400Z,1013.56
2023-05-05T12:37:38.699Z,1013.6
2023-05-05T12:39:23.362Z,1013.44
2023-05-05T12:41:08.362Z,1013.56
2023-05-05T12:42:53.475Z,1013.43
2023-05-05T12:44:38.408Z,1013.55
2023-05-05T12:46:23.400Z,1013.52
2023-05-05T12:48:08.436Z,1013.55
2023-05-05T12:49:53.387Z,1013.46
2023-05-05T12:51:38.389Z,1013.47
2023-05-05T12:53:23.416Z,1013.59
2023-05-05T12:55:08.560Z,1013.66
2023-05-05T12:56:53.396Z,1013.57
2023-05-05T12:58:38.474Z,1013.49
2023-05-05T13:00:23.389Z,1013.51
2023-05-05T13:02:08.413Z,1013.45
2023-05-05T13:03:53.448Z,1013.43
2023-05-05T13:05:38.404Z,1013.4
2023-05-05T13:07:23.423Z,1013.25
2023-05-05T13:09:08.462Z,1013.39
2023-05-05T13:10:53.739Z,1013.4
2023-05-05T13:12:38.455Z,1013.39
2023-05-05T13:14:23.469Z,1013.42
2023-05-05T13:16:08.466Z,1013.46
2023-05-05T13:17:53.430Z,1013.51
2023-05-05T13:19:38.490Z,1013.48
2023-05-05T13:21:23.446Z,1013.48
2023-05-05T13:23:08.431Z,1013.57
2023-05-05T13:24:53.521Z,1013.61
2023-05-05T13:26:38.422Z,1013.6
2023-05-05T13:28:23.480Z,1013.48
2023-05-05T13:30:08.771Z,1013.5
2023-05-05T13:31:53.473Z,1013.46
2023-05-05T13:33:38.430Z,1013.42
2023-05-05T13:35:23.467Z,1013.43
2023-05-05T13:37:08.765Z,1013.41
2023-05-05T13:38:53.444Z,1013.37
2023-05-05T13:40:38.517Z,1013.38
2023-05-05T13:42:23.479Z,1013.41
2023-05-05T13:44:08.463Z,1013.35
2023-05-05T13:45:53.646Z,1013.35
2023-05-05T13:47:38.498Z,1013.3
2023-05-05T13:49:23.440Z,1013.29
2023-05-05T13:51:08.487Z,1013.3
2023-05-05T13:52:53.462Z,1013.28
2023-05-05T13:54:38.453Z,1013.24
2023-05-05T13:56:23.509Z,1013.17
2023-05-05T13:58:08.483Z,1013.24
2023-05-05T13:59:53.466Z,1013.23
2023-05-05T14:01:38.557Z,1013.27
2023-05-05T14:03:23.512Z,1013.26
2023-05-05T14:05:08.600Z,1013.32
2023-05-05T14:06:53.551Z,1013.35
2023-05-05T14:08:38.508Z,1013.37
2023-05-05T14:10:23.475Z,1013.32
2023-05-05T14:12:08.541Z,1013.32
2023-05-05T14:13:53.486Z,1013.36
2023-05-05T14:15:38.499Z,1013.5
2023-05-05T14:17:23.755Z,1013.63
2023-05-05T14:19:08.584Z,1013.67
2023-05-05T14:20:53.505Z,1013.89
2023-05-05T14:22:38.576Z,1014
2023-05-05T14:24:23.490Z,1014.03
2023-05-05T14:26:08.507Z,1014.09
2023-05-05T14:27:53.575Z,1013.94
2023-05-05T14:29:38.552Z,1013.84
2023-05-05T14:31:23.511Z,1013.89
2023-05-05T14:33:08.643Z,1013.99
2023-05-05T14:34:53.514Z,1013.92
2023-05-05T14:36:38.557Z,1013.97
2023-05-05T14:38:23.580Z,1013.95
2023-05-05T14:40:08.530Z,1013.97
2023-05-05T14:41:53.490Z,1013.97
2023-05-05T14:43:38.569Z,1013.92
2023-05-05T14:45:23.548Z,1014
2023-05-05T14:47:08.516Z,1013.93
2023-05-05T14:48:53.679Z,1013.96
2023-05-05T14:50:38.523Z,1013.87
2023-05-05T14:52:23.544Z,1013.98
2023-05-05T14:54:17.395Z,1013.89
2023-05-05T14:55:53.529Z,1013.88
2023-05-05T14:57:39.453Z,1013.88
2023-05-05T14:59:23.889Z,1013.91
2023-05-05T15:01:08.850Z,1013.92
2023-05-05T15:02:53.626Z,1013.94
2023-05-05T15:04:38.918Z,1013.94
2023-05-05T15:06:23.537Z,1013.87
2023-05-05T15:08:08.528Z,1013.96
2023-05-05T15:09:53.557Z,1013.94
2023-05-05T15:11:38.524Z,1013.96
2023-05-05T15:13:23.588Z,1013.95
2023-05-05T15:15:08.796Z,1013.97
2023-05-05T15:16:53.542Z,1013.95
2023-05-05T15:18:38.608Z,1013.94
2023-05-05T15:20:23.590Z,1014.04
2023-05-05T15:22:08.552Z,1014.01
2023-05-05T15:23:53.553Z,1014.05
2023-05-05T15:25:38.605Z,1014.07
2023-05-05T15:27:23.569Z,1014.07
2023-05-05T15:29:08.900Z,1014.11
2023-05-05T15:30:53.587Z,1014.07
2023-05-05T15:32:38.589Z,1014.07
2023-05-05T15:34:23.562Z,1014.08
2023-05-05T15:36:08.703Z,1014.06
2023-05-05T15:37:53.563Z,1014.2
2023-05-05T15:39:38.558Z,1014.19
2023-05-05T15:41:23.591Z,1014.16
2023-05-05T15:43:08.566Z,1014.2
2023-05-05T15:44:53.604Z,1014.18
2023-05-05T15:46:38.614Z,1014.13
2023-05-05T15:48:23.572Z,1014.21
2023-05-05T15:50:08.595Z,1014.18
2023-05-05T15:51:53.710Z,1014.1
2023-05-05T15:53:38.575Z,1014.07
2023-05-05T15:55:23.565Z,1014.09
2023-05-05T15:57:08.592Z,1014
2023-05-05T15:58:53.575Z,1014.02
2023-05-05T16:00:38.609Z,1013.94
2023-05-05T16:02:23.763Z,1013.97
2023-05-05T16:04:08.582Z,1013.98
2023-05-05T16:05:53.612Z,1014.04
2023-05-05T16:07:38.773Z,1014.03
2023-05-05T16:09:23.591Z,1014.01
2023-05-05T16:11:08.635Z,1013.91
2023-05-05T16:12:53.722Z,1013.93
2023-05-05T16:14:38.609Z,1013.98
2023-05-05T16:16:23.603Z,1013.86
2023-05-05T16:18:08.678Z,1013.81
2023-05-05T16:19:53.891Z,1013.81
2023-05-05T16:21:38.617Z,1013.92
2023-05-05T16:23:23.650Z,1013.77
2023-05-05T16:25:08.780Z,1013.76
2023-05-05T16:26:53.617Z,1013.74
2023-05-05T16:28:38.649Z,1013.76
2023-05-05T16:30:23.613Z,1013.73
2023-05-05T16:32:08.604Z,1013.74
2023-05-05T16:33:53.728Z,1013.74
2023-05-05T16:35:38.627Z,1013.73
2023-05-05T16:37:23.936Z,1013.85
2023-05-05T16:39:08.673Z,1013.78
2023-05-05T16:40:53.968Z,1013.77
2023-05-05T16:42:39.245Z,1013.82
2023-05-05T16:44:23.665Z,1013.76
2023-05-05T16:46:08.643Z,1013.81
2023-05-05T16:47:53.671Z,1013.75
2023-05-05T16:49:38.655Z,1013.78
2023-05-05T16:51:23.633Z,1013.87
2023-05-05T16:53:08.636Z,1013.87
2023-05-05T16:54:54.092Z,1013.83
2023-05-05T16:56:38.691Z,1013.78
2023-05-05T16:58:23.667Z,1013.79
2023-05-05T17:00:08.676Z,1013.81
2023-05-05T17:01:53.674Z,1013.77
2023-05-05T17:03:38.657Z,1013.73
2023-05-05T17:05:23.766Z,1013.75
2023-05-05T17:07:08.671Z,1013.68
2023-05-05T17:08:53.666Z,1013.79
2023-05-05T17:10:38.818Z,1013.72
2023-05-05T17:12:23.662Z,1013.78
2023-05-05T17:14:08.672Z,1013.87
2023-05-05T17:15:53.758Z,1013.73
2023-05-05T17:17:39.708Z,1013.92
2023-05-05T17:19:23.678Z,1013.85
2023-05-05T17:21:08.711Z,1013.98
2023-05-05T17:22:53.666Z,1014.01
2023-05-05T17:24:38.692Z,1014.05
2023-05-05T17:26:23.835Z,1014.02
2023-05-05T17:28:08.675Z,1013.98
2023-05-05T17:29:53.694Z,1013.94
2023-05-05T17:31:38.779Z,1013.96
2023-05-05T17:33:23.697Z,1013.9
2023-05-05T17:35:08.973Z,1013.97
2023-05-05T17:36:53.763Z,1014
2023-05-05T17:38:38.728Z,1013.98
2023-05-05T17:40:23.707Z,1013.98
2023-05-05T17:42:08.890Z,1014.02
2023-05-05T17:43:53.698Z,1014.09
2023-05-05T17:45:38.759Z,1014.03
2023-05-05T17:47:23.846Z,1014.05
2023-05-05T17:49:08.725Z,1014.01
2023-05-05T17:50:53.706Z,1014.11
2023-05-05T17:52:38.800Z,1014.01
2023-05-05T17:54:23.714Z,1014.05
2023-05-05T17:56:09.262Z,1013.95
2023-05-05T17:57:53.950Z,1013.98
2023-05-05T17:59:38.729Z,1014.04
2023-05-05T18:01:23.807Z,1014.02
2023-05-05T18:03:08.859Z,1013.96
2023-05-05T18:04:53.743Z,1014.03
2023-05-05T18:06:38.761Z,1013.92
2023-05-05T18:08:23.808Z,1013.98
2023-05-05T18:10:08.768Z,1013.94
2023-05-05T18:11:53.750Z,1013.94
2023-05-05T18:13:38.929Z,1013.88
2023-05-05T18:15:23.780Z,1013.85
2023-05-05T18:17:08.776Z,1013.92
2023-05-05T18:18:53.834Z,1013.98
2023-05-05T18:20:38.780Z,1014.07
2023-05-05T18:22:23.765Z,1014.04
2023-05-05T18:24:19.070Z,1014.11
2023-05-05T18:25:53.809Z,1014.06
2023-05-05T18:27:38.788Z,1014.1
2023-05-05T18:29:24.060Z,1014.12
2023-05-05T18:31:08.838Z,1014.06
2023-05-05T18:32:53.819Z,1014.14
2023-05-05T18:34:38.842Z,1014.14
2023-05-05T18:36:23.813Z,1014.02
2023-05-05T18:38:08.790Z,1014.13
2023-05-05T18:39:53.827Z,1014.06
2023-05-05T18:41:38.811Z,1014.09
2023-05-05T18:43:23.854Z,1014.03
2023-05-05T18:45:09.216Z,1013.97
2023-05-05T18:46:53.877Z,1014.05
2023-05-05T18:48:38.833Z,1014.05
2023-05-05T18:50:23.865Z,1014.1
2023-05-05T18:52:08.872Z,1014.14
2023-05-05T18:53:53.832Z,1014.08
2023-05-05T18:55:38.864Z,1014.05
2023-05-05T18:57:23.844Z,1014
2023-05-05T18:59:08.840Z,1014.05
2023-05-05T19:00:53.973Z,1014.02
2023-05-05T19:02:38.885Z,1014.04
2023-05-05T19:04:31.142Z,1014.08
2023-05-05T19:06:08.908Z,1014.08
2023-05-05T19:07:53.814Z,1014.1
2023-05-05T19:09:38.837Z,1014.03
2023-05-05T19:11:23.867Z,1014.06
2023-05-05T19:13:08.882Z,1014.09
2023-05-05T19:14:53.857Z,1014.14
2023-05-05T19:16:38.938Z,1014.15
2023-05-05T19:18:23.874Z,1014.13
2023-05-05T19:20:08.840Z,1014.26
2023-05-05T19:21:53.918Z,1014.28
2023-05-05T19:23:38.867Z,1014.29
2023-05-05T19:25:23.872Z,1014.24
2023-05-05T19:27:08.876Z,1014.44
2023-05-05T19:28:53.890Z,1014.42
2023-05-05T19:30:38.904Z,1014.28
2023-05-05T19:32:24.069Z,1014.39
2023-05-05T19:34:08.889Z,1014.38
2023-05-05T19:35:53.904Z,1014.34
2023-05-05T19:37:38.926Z,1014.39
2023-05-05T19:39:23.868Z,1014.45
2023-05-05T19:41:08.894Z,1014.46
2023-05-05T19:42:53.896Z,1014.55
2023-05-05T19:44:38.977Z,1014.45
2023-05-05T19:46:23.973Z,1014.48
2023-05-05T19:48:09.030Z,1014.53
2023-05-05T19:49:53.883Z,1014.51
2023-05-05T19:51:38.908Z,1014.51
2023-05-05T19:53:23.939Z,1014.48
2023-05-05T19:55:08.903Z,1014.38
2023-05-05T19:56:55.245Z,1014.46
2023-05-05T19:58:38.961Z,1014.48
2023-05-05T20:00:23.878Z,1014.51
2023-05-05T20:02:08.902Z,1014.55
2023-05-05T20:03:54.109Z,1014.48
2023-05-05T20:05:38.905Z,1014.47
2023-05-05T20:07:23.934Z,1014.51
2023-05-05T20:09:09.002Z,1014.55
2023-05-05T20:10:53.904Z,1014.4
2023-05-05T20:12:39.256Z,1014.41
2023-05-05T20:14:23.998Z,1014.47
2023-05-05T20:16:08.992Z,1014.43
2023-05-05T20:17:53.940Z,1014.37
2023-05-05T20:19:39.023Z,1014.41
2023-05-05T20:21:23.908Z,1014.34
2023-05-05T20:23:08.910Z,1014.39
2023-05-05T20:24:53.985Z,1014.26
2023-05-05T20:26:38.930Z,1014.38
2023-05-05T20:28:23.952Z,1014.33
2023-05-05T20:30:09.145Z,1014.36
2023-05-05T20:31:53.996Z,1014.31
2023-05-05T20:33:38.944Z,1014.3
2023-05-05T20:35:24.170Z,1014.26
2023-05-05T20:37:10.107Z,1014.21
2023-05-05T20:38:53.923Z,1014.3
2023-05-05T20:40:38.971Z,1014.24
2023-05-05T20:42:23.954Z,1014.32
2023-05-05T20:44:08.940Z,1014.34
2023-05-05T20:45:54.014Z,1014.29
2023-05-05T20:47:38.992Z,1014.23
2023-05-05T20:49:23.963Z,1014.28
2023-05-05T20:51:09.157Z,1014.24
2023-05-05T20:52:53.969Z,1014.24
2023-05-05T20:54:38.954Z,1014.27
2023-05-05T20:56:24.018Z,1014.31
2023-05-05T20:58:09.258Z,1014.23
2023-05-05T20:59:53.968Z,1014.3
2023-05-05T21:01:39.036Z,1014.28
2023-05-05T21:03:23.991Z,1014.29
2023-05-05T21:05:08.964Z,1014.28
2023-05-05T21:06:54.085Z,1014.25
2023-05-05T21:08:39.008Z,1014.27
2023-05-05T21:10:23.960Z,1014.33
2023-05-05T21:12:09.064Z,1014.4
2023-05-05T21:13:54.006Z,1014.28
2023-05-05T21:15:38.995Z,1014.32
2023-05-05T21:17:24.024Z,1014.35